Metar ktoa

See also: MetarsMetar addsMeters to inchesMeters to milesMetar tafMeters to kilometers

Keywords Suggestions

Metar ktoa

( Please select at least 2 keywords )

Related websites

METAR of Zamperini Field, United States KTOA

  • METAR KTOA 211447Z 00000KT 10SM SCT200 11/07 A3010
  • There is little or no wind from a variable direction

Metar-taf.com   DA: 13 PA: 5 MOZ Rank: 19

METAR TAF : Zamperini Field, Torrance California United States

  • The report was made 3 hours and 27 minutes ago, at 02:55 UTC
  • Few clouds at a height of 1500 ft
  • METAR: KTOA 090255Z 26008KT 10SM FEW015 17/13 A3004 RMK LAST.

En.allmetsat.com   DA: 16 PA: 34 MOZ Rank: 52

METAR TAF : Zamperini Field, Torrance California United States

  • METAR: KTOA 102047Z 27011KT 10SM SKC 25/12 A2996 Time: 14:40 (21:40 UTC) TAF: missing
  • Weather observations and forecasts of more than 4000 airports (METAR and TAF reports)
  • The available stations are represented by yellow and red dots on the map

En.allmetsat.com   DA: 16 PA: 47 MOZ Rank: 66

METAR of Zamperini Field, United States KTOA

  • Zamperini Field is a small airport in Torrance, United States
  • The airport has 2 runways: 11L/29R (5,000 ft) and 11R/29L
  • Zamperini Field didn't publish observations recently
  • Instead, we show you the report of San Gabriel Valley Airport which is 26 mi away
  • This report was made on September 29, 2021 7:56 pm, local time.

Metar-taf.com   DA: 13 PA: 5 MOZ Rank: 22

METAR of Zamperini Field, United States KTOA

  • Zamperini Field is a small airport in Torrance, United States
  • The airport has 2 runways: 11L/29R (5,000 ft) and 11R/29L
  • Zamperini Field didn't publish observations recently
  • Instead, we show you the report of Fullerton Municipal Airport which is 21 mi away
  • This report was made on September 8, 2021 6:53 am, local time.

Metar-taf.com   DA: 13 PA: 5 MOZ Rank: 23

Zamperini Field, United States KTOA Pilot info

  • Zamperini Field is a small airport in Torrance, United States
  • The airport has 2 runways: 11L/29R (5,000 ft) and 11R/29L (2,999 ft) The ICAO designator of this field is KTOA and it's IATA code is TOA
  • Field elevation is 103 ft above the mean sea level
  • Nearby other airfields are Goodyear Blimp Base Airport, Compton Woodley Airport, Jack

Metar-taf.com   DA: 13 PA: 13 MOZ Rank: 32

METAR of Zamperini Field, United States KTOA

  • Zamperini Field is a small airport in Torrance, United States
  • The airport has 2 runways: 11L/29R (5,000 ft) and 11R/29L
  • Zamperini Field didn't publish observations recently
  • Instead, we show you the report of Jack Northrop Field which is 8 mi away
  • This report was made on July 31, 2021 6:53 am, local time.

Metar-taf.com   DA: 13 PA: 5 MOZ Rank: 25

Zamperini Field, Torrance, United States (KTOA)

  • View the flying weather (METAR and TAF) for Zamperini Field, Torrance, United States
  • Zamperini Field Jack Northrop Field (8 mi) Los Angeles International Airport (10 mi) Long

Metar-taf.com   DA: 13 PA: 24 MOZ Rank: 45

Torrance Zamperini Field Airport (TOA/KTOA) METAR

METAR UTC DATE/TIME; KTOA 180247Z 29004KT 10SM FEW017 15/13 A2997 RMK LAST: 2021-10-18 02:47:00: Day: 18th Time: 02:47 UTC Wind direction: 290° Wind speed: 4kt Temperature: 15°C Dew point: 13°C Pressure: 29.97 inHg Visibility: 10 SM KTOA 180147Z 24005KT 10SM FEW017 16/13 A2995

Flightradar24.com   DA: 21 PA: 26 MOZ Rank: 56

METAR Los Angeles International Airport, United States KLAX

  • METAR KTOA 300247Z 26007KT 10SM FEW010 17/16 A2989 RMK LAST
  • The wind is from direction west with a speed of 7 kt

Metar-taf.com   DA: 13 PA: 5 MOZ Rank: 28

Zamperini Fld Airport Weather (Torrance, CA) [KTOA/TOA

  • Zamperini Fld Airport (Torrance, CA) TOA Weather
  • Torrance, CA ( KTOA) Partly cloudy
  • There is no TAF data available at TOA
  • View TAF data for KLAX (10 mi NW)
  • LAX Terminal Area Forecast (no data for TOA) Date.

Flightaware.com   DA: 15 PA: 31 MOZ Rank: 57

National Weather Service : Observed Weather for past 3

  • D a t e Time (pdt) Wind (mph) Vis
  • Temperature (ºF) Relative Humidity Wind Chill (°F) Heat Index (°F) Pressure Precipitation (in.) Air Dwpt

W1.weather.gov   DA: 14 PA: 20 MOZ Rank: 46

METAR TAF : Tampa International Airport, Tampa Florida

  • METAR: KTPA 220453Z 00000KT 10SM FEW200 24/19 A3008 RMK AO2 SLP186 T02390194 403110211 Time: 01:40 (05:40 UTC) Forecast
  • The report was made 13 minutes ago, at 05:27 UTC
  • Forecast valid from 22 at 06 UTC to 23 at 12 UTC
  • Wind 3 mph from variable directions

En.allmetsat.com   DA: 16 PA: 22 MOZ Rank: 51

Current Weather West Carson

METAR for West Carson (KTOA) Time Conditions Temperature/ Dewpoint Wind Visibility Weather Clouds Pressure Change Raw; 18:47 01:12h ago : VFR: 69.8°F / 62.6°F: 280º 16kt >10km - Few Clouds 1200ft - KTOA 100147Z 28016KT 10SM FEW012 21/17 A2985 : 17:47 02:12h ago : VFR: 71.6°F / 62.6°F: 270º 16kt >10km - Few Clouds 1200ft - KTOA 100047Z

Meteoblue.com   DA: 17 PA: 50 MOZ Rank: 81

Zamperini Field Airport

  • Zamperini Field Airport (TOA) located in Torrance, California, United States
  • Airport information including flight arrivals, flight departures, instrument approach procedures, weather, location, runways, diagrams, sectional charts, navaids, radio communication frequencies, FBO and fuel prices, hotels, car rentals, sunrise and sunset times, aerial photos, terminal maps, and destination travel

Airportguide.com   DA: 16 PA: 17 MOZ Rank: 48

ZAMPERINI FLD Airport (KTOA)

  • GlobalAir.com receives its data from NOAA, NWS, FAA and NACO, and Weather Underground
  • We strives to maintain current and accurate data
  • However, GlobalAir.com cannot guarantee the data received from these government sources is accurate or complete.

Globalair.com   DA: 17 PA: 25 MOZ Rank: 58

Torrance Zamperini Field Airport (TOA/KTOA) Arrivals

  • Torrance Zamperini Field Airport, (TOA/KTOA), United States - View live flight arrival and departure information, live flight delays and cancelations, and current weather conditions at the airport
  • See route maps and schedules for flights to and from Torrance and airport reviews
  • Flightradar24 is the world’s most popular flight tracker

Flightradar24.com   DA: 21 PA: 18 MOZ Rank: 56

Airport Detail: KTOA LiveATC.net

ICAO: KTOA IATA: TOA Airport: Zamperini Field Airport City: Torrance State/Province: California Country: United States Continent: North America KTOA METAR Weather: KTOA Flight Activity (FlightAware): KTOA Airport Info (iFlightPlanner): KTOA VFR Sectional Chart (iFlightPlanner) ; KTOA IFR Low Chart (iFlightPlanner)

Liveatc.net   DA: 15 PA: 8 MOZ Rank: 41

Torrance Airport

  • KTOA; Observation Time: 2021-10-16 02:50:00am; METAR
  • Full weather observations and METAR data is available to Premium users
  • Register or log in to a Premium account now to access this data

World-airport-codes.com   DA: 27 PA: 41 MOZ Rank: 87

Zamperini Field (TOA / KTOA)

Zamperini Field (TOA / KTOA) - Airport Flights Status - AirNav RadarBox Database - Live Flight Tracker, Status, History, Route, Replay, Status, Airports Arrivals Departures

Radarbox.com   DA: 16 PA: 19 MOZ Rank: 55

Torrance Area Helicopter Activity Month day, year

  • METAR KTOA 071447Z 28004KT 7SM SCT010 BKN015 BKN020 15/13 A2996 RMK RAE15 8:47 AM 60.8 °F 53.6 °F 77%
  • in 7.0 mi SW 5.8 mph - N/A Mostly Cloudy METAR KTOA 071547Z 22005KT 7SM BKN010 BKN020 16/12 A2994 9:50 AM 64.4 °F 53.6 °F 68%
  • in 7.0 mi SSW 11.5 mph - N/A Mostly Cloudy METAR KTOA 071650Z 21010KT 7SM SCT010 BKN015 18/12 A2995

Torranceca.gov   DA: 18 PA: 50 MOZ Rank: 89

Domain Expiry Date Updated

Expiry DateExpiry DateDomain ProviderHosting Provider
Yh-cli.com 142 days leftGMO Internet, Inc. d/b/a Onamae.comDomain Name Services
Navyfederaldigitalinvestor.com 264 days leftNetwork Solutions, LLCAkamai Technologies, Inc.
Okta.com3 years, 229 days leftMarkMonitor Inc.Amazon Technologies Inc.
52daysofthanksandpraise.com 11 days leftGoDaddy.com, LLCAfrican Network Information Center
Worldsitelink.com1 year, 18 days leftNameCheap, Inc.Cloudflare, Inc.
Softronix.com2 years, 346 days leftGoDaddy.com, LLCNew Dream Network, LLC
Shekhawatiyarn.com3 years, 280 days leftGoDaddy.com, LLCCodero
Apllogistics.com 81 days leftCSC Corporate Domains, Inc.Linode
Okjatt.com 328 days leftNameCheap, Inc.Cloudflare, Inc.
Swilliowa.com 125 days leftGoDaddy.com, LLCLiquid Web, L.L.C

<< See All >>

.COM - 10,595,200+   .ORG - 1,117,549+   .EDU - 123,500+   .NET - 792,945+   .GOV - 30,232+   .US - 84,439+   .CA - 122,904+   .DE - 220,061+   .UK - 272,390+   .IT - 108,882+   .AU - 152,812+   .CO - 51,739+   .BIZ - 59,081+   .IO - 32,494+   .NL - 99,647+   .SG - 19,713+   .INFO - 81,589+   .IE - 26,934+   .ME - 25,076+   .FR - 98,576+   .EU - 61,372+   .RU - 165,043+   .PH - 9,511+   .INT - 1,166+   .IN - 87,021+   .ES - 38,035+   .CZ - 71,869+   .VN - 48,920+   .TV - 14,250+   .SITE - 9,829+   .RO - 37,484+   .PL - 44,520+   .PK - 10,373+   .MOBI - 4,464+   .LK - 5,507+   .CN - 66,137+   .CH - 66,914+   .AT - 31,992+  

Email Address Search | IP Address Blacklist Check | Hosting Providers | Domain Providers | Website Error Checker

© 2018 Site-Stats.org. All rights reserved. Email: [email protected]